Time;durP1;ratioP1;P1;durP2;ratioP2;P2;SDS_P1;SDS_P2;PMS_P1;PMS_P2;Temp;Humidity;BMP_temperature;BMP_pressure;BME280_temperature;BME280_humidity;BME280_pressure;Samples;Min_cycle;Max_cycle;Signal;HPM_P1;HPM_P2
2022/05/29 00:01:12;;;;;;;;;;;9.20;99.90;;;;;;5054616;28;19924;-72
2022/05/29 00:03:39;;;;;;;;;;;9.20;99.90;;;;;;5058605;28;20358;-72
2022/05/29 00:06:05;;;;;;;;;;;9.20;99.90;;;;;;5056561;28;19928;-72
2022/05/29 00:08:38;;;;;;;;;;;9.20;99.90;;;;;;5055831;28;19928;-72
2022/05/29 00:11:12;;;;;;;;;;;9.20;99.90;;;;;;5084442;28;20284;-72
2022/05/29 00:13:44;;;;;;;;;;;9.10;99.90;;;;;;5090796;28;19924;-72
2022/05/29 00:16:16;;;;;;;;;;;9.10;99.90;;;;;;5082606;28;19931;-72
2022/05/29 00:18:47;;;;;;;;;;;9.00;99.90;;;;;;5092694;28;19924;-72
2022/05/29 00:21:19;;;;;;;;;;;8.90;99.90;;;;;;5101882;28;19925;-72
2022/05/29 00:23:51;;;;;;;;;;;9.00;99.90;;;;;;5076829;28;20007;-72
2022/05/29 00:26:23;;;;;;;;;;;8.90;99.90;;;;;;5088620;28;20372;-72
2022/05/29 00:28:54;;;;;;;;;;;8.90;99.90;;;;;;5088589;28;19931;-72
2022/05/29 00:31:26;;;;;;;;;;;8.90;99.90;;;;;;5073878;28;19928;-72
2022/05/29 00:33:57;;;;;;;;;;;8.90;99.90;;;;;;5065225;28;20015;-72
2022/05/29 00:36:24;;;;;;;;;;;8.90;99.90;;;;;;5069487;28;19928;-72
2022/05/29 00:38:56;;;;;;;;;;;8.90;99.90;;;;;;5065485;28;19924;-73
2022/05/29 00:41:29;;;;;;;;;;;9.00;99.90;;;;;;5058611;28;19928;-72
2022/05/29 00:44:14;;;;;;;;;;;9.00;99.90;;;;;;5062429;28;19946;-72
2022/05/29 00:46:48;;;;;;;;;;;9.00;99.90;;;;;;5091827;28;19928;-73
2022/05/29 00:49:24;;;;;;;;;;;9.00;99.90;;;;;;5082722;28;19928;-73
2022/05/29 00:52:01;;;;;;;;;;;9.00;99.90;;;;;;5054184;28;19932;-73
2022/05/29 00:54:43;;;;;;;;;;;9.00;99.90;;;;;;5092555;28;19951;-73
2022/05/29 00:57:16;;;;;;;;;;;9.00;99.90;;;;;;5062218;28;20030;-73
2022/05/29 00:59:43;;;;;;;;;;;9.00;99.90;;;;;;5057763;28;19928;-73
2022/05/29 01:02:14;;;;;;;;;;;8.90;99.90;;;;;;5065136;28;19924;-73
2022/05/29 01:04:46;;;;;;;;;;;8.90;99.90;;;;;;5073002;28;19932;-73
2022/05/29 01:07:19;;;;;;;;;;;8.80;99.90;;;;;;5079026;28;19935;-73
2022/05/29 01:09:51;;;;;;;;;;;8.70;99.90;;;;;;5071584;28;20023;-73
2022/05/29 01:12:30;;;;;;;;;;;8.60;99.90;;;;;;5067093;28;19935;-73
2022/05/29 01:15:09;;;;;;;;;;;8.60;99.90;;;;;;5086363;28;20400;-73
2022/05/29 01:17:55;;;;;;;;;;;8.40;99.90;;;;;;5069213;28;20023;-73
2022/05/29 01:20:36;;;;;;;;;;;8.40;99.90;;;;;;5070702;28;19924;-73
2022/05/29 01:23:10;;;;;;;;;;;8.40;99.90;;;;;;5068561;28;19928;-73
2022/05/29 01:25:54;;;;;;;;;;;8.30;99.90;;;;;;5054975;28;19924;-73
2022/05/29 01:28:36;;;;;;;;;;;8.30;99.90;;;;;;5073214;28;20377;-73
2022/05/29 01:31:12;;;;;;;;;;;8.30;99.90;;;;;;5090986;28;19931;-72
2022/05/29 01:33:46;;;;;;;;;;;8.20;99.90;;;;;;5096976;28;19934;-72
2022/05/29 01:36:17;;;;;;;;;;;8.20;99.90;;;;;;5093096;28;20300;-73
2022/05/29 01:38:56;;;;;;;;;;;8.20;99.90;;;;;;5071355;28;19935;-72
2022/05/29 01:41:34;;;;;;;;;;;8.10;99.90;;;;;;5072921;28;19951;-72
2022/05/29 01:44:04;;;;;;;;;;;8.10;99.90;;;;;;5075624;28;20380;-73
2022/05/29 01:46:32;;;;;;;;;;;8.10;99.90;;;;;;5071405;28;20391;-73
2022/05/29 01:49:08;;;;;;;;;;;8.00;99.90;;;;;;5088219;28;19925;-73
2022/05/29 01:52:18;;;;;;;;;;;8.00;99.90;;;;;;5059210;28;19931;-72
2022/05/29 01:54:53;;;;;;;;;;;8.00;99.90;;;;;;5013749;28;19929;-73
2022/05/29 01:57:27;;;;;;;;;;;7.90;99.90;;;;;;5029957;28;19925;-72
2022/05/29 02:00:12;;;;;;;;;;;7.90;99.90;;;;;;5056134;28;19928;-73
2022/05/29 02:02:40;;;;;;;;;;;7.90;99.90;;;;;;5037904;28;20045;-73
2022/05/29 02:05:14;;;;;;;;;;;7.90;99.90;;;;;;5072215;28;19925;-73
2022/05/29 02:07:48;;;;;;;;;;;7.80;99.90;;;;;;5037908;28;20334;-73
2022/05/29 02:10:55;;;;;;;;;;;7.90;99.90;;;;;;5054423;28;20320;-72
2022/05/29 02:13:30;;;;;;;;;;;7.80;99.90;;;;;;5033750;28;19928;-73
2022/05/29 02:16:04;;;;;;;;;;;7.80;99.90;;;;;;5054770;28;19928;-73
2022/05/29 02:18:38;;;;;;;;;;;7.80;99.90;;;;;;5084478;28;19924;-73
2022/05/29 02:21:19;;;;;;;;;;;7.80;99.90;;;;;;5072009;28;19931;-73
2022/05/29 02:23:48;;;;;;;;;;;7.80;99.90;;;;;;5090264;28;19928;-73
2022/05/29 02:26:25;;;;;;;;;;;7.80;99.90;;;;;;5106876;28;19924;-72
2022/05/29 02:28:59;;;;;;;;;;;7.70;99.90;;;;;;5104529;28;19924;-73
2022/05/29 02:31:31;;;;;;;;;;;7.70;99.90;;;;;;5069330;28;19935;-73
2022/05/29 02:34:05;;;;;;;;;;;7.70;99.90;;;;;;5059018;28;19963;-73
2022/05/29 02:36:44;;;;;;;;;;;7.60;99.90;;;;;;5079625;28;19931;-72
2022/05/29 02:39:22;;;;;;;;;;;7.50;99.90;;;;;;5069723;28;20367;-73
2022/05/29 02:42:08;;;;;;;;;;;7.40;99.90;;;;;;5085545;28;19932;-72
2022/05/29 02:44:47;;;;;;;;;;;7.30;99.90;;;;;;5062437;28;19925;-73
2022/05/29 02:47:23;;;;;;;;;;;7.30;99.90;;;;;;5075318;28;19924;-72
2022/05/29 02:50:18;;;;;;;;;;;7.30;99.90;;;;;;5097685;28;19931;-73
2022/05/29 02:52:45;;;;;;;;;;;7.40;99.90;;;;;;5090858;28;19924;-73
2022/05/29 02:55:17;;;;;;;;;;;7.30;99.90;;;;;;5052121;28;19932;-73
2022/05/29 02:57:50;;;;;;;;;;;7.20;99.90;;;;;;5082772;28;20285;-73
2022/05/29 03:00:17;;;;;;;;;;;7.20;99.90;;;;;;5073194;28;19928;-73
2022/05/29 03:02:57;;;;;;;;;;;7.20;99.90;;;;;;5091517;28;19924;-73
2022/05/29 03:05:31;;;;;;;;;;;7.20;99.90;;;;;;5066678;28;20324;-73
2022/05/29 03:08:07;;;;;;;;;;;7.20;99.90;;;;;;5057486;28;19924;-73
2022/05/29 03:10:41;;;;;;;;;;;7.20;99.90;;;;;;5059711;28;19928;-73
2022/05/29 03:13:23;;;;;;;;;;;7.10;99.90;;;;;;5073253;28;19931;-73
2022/05/29 03:15:59;;;;;;;;;;;7.20;99.90;;;;;;5058040;28;19933;-73
2022/05/29 03:18:46;;;;;;;;;;;7.20;99.90;;;;;;5075654;28;19995;-73
2022/05/29 03:21:36;;;;;;;;;;;7.20;99.90;;;;;;5084058;28;19950;-73
2022/05/29 03:24:20;;;;;;;;;;;7.20;99.90;;;;;;5087625;28;19928;-73
2022/05/29 03:27:12;;;;;;;;;;;7.20;99.90;;;;;;5080662;28;19928;-73
2022/05/29 03:29:49;;;;;;;;;;;7.10;99.90;;;;;;5071821;28;19925;-73
2022/05/29 03:32:15;;;;;;;;;;;7.10;99.90;;;;;;5056842;28;19924;-73
2022/05/29 03:34:47;;;;;;;;;;;7.00;99.90;;;;;;5060084;28;19924;-73
2022/05/29 03:37:19;;;;;;;;;;;7.00;99.90;;;;;;5082305;28;19927;-72
2022/05/29 03:39:50;;;;;;;;;;;6.90;99.90;;;;;;5058578;28;20034;-73
2022/05/29 03:42:22;;;;;;;;;;;6.90;99.90;;;;;;5082062;28;19930;-73
2022/05/29 03:44:54;;;;;;;;;;;7.00;99.90;;;;;;5074548;28;19947;-73
2022/05/29 03:47:27;;;;;;;;;;;7.00;99.90;;;;;;5070540;28;19936;-73
2022/05/29 03:49:58;;;;;;;;;;;7.00;99.90;;;;;;5067882;28;19916;-72
2022/05/29 03:52:31;;;;;;;;;;;6.90;99.90;;;;;;5074270;28;20364;-71
2022/05/29 03:54:58;;;;;;;;;;;6.90;99.90;;;;;;5060212;28;19948;-72
2022/05/29 03:57:29;;;;;;;;;;;6.70;99.90;;;;;;5061491;28;19925;-72
2022/05/29 04:00:02;;;;;;;;;;;6.70;99.90;;;;;;5107142;28;19934;-71
2022/05/29 04:02:40;;;;;;;;;;;6.70;99.90;;;;;;5083578;28;19924;-73
2022/05/29 04:05:13;;;;;;;;;;;6.70;99.90;;;;;;5095523;28;19938;-72
2022/05/29 04:13:24;;;;;;;;;;;6.90;99.90;;;;;;5078718;28;19935;-72
2022/05/29 04:15:51;;;;;;;;;;;7.00;99.90;;;;;;5069948;28;19931;-72
2022/05/29 04:18:18;;;;;;;;;;;7.00;99.90;;;;;;5085826;28;19947;-72
2022/05/29 04:20:45;;;;;;;;;;;7.00;99.90;;;;;;5082114;28;20428;-72
2022/05/29 04:23:17;;;;;;;;;;;7.00;99.90;;;;;;5089217;28;19931;-72
2022/05/29 04:25:49;;;;;;;;;;;7.10;99.90;;;;;;5050261;28;19928;-71
2022/05/29 04:28:22;;;;;;;;;;;7.10;99.90;;;;;;5088583;28;19925;-71
2022/05/29 04:30:54;;;;;;;;;;;7.20;99.90;;;;;;5066452;28;19931;-71
2022/05/29 04:33:25;;;;;;;;;;;7.30;99.90;;;;;;5058349;28;19928;-72
2022/05/29 04:35:57;;;;;;;;;;;7.40;99.90;;;;;;5090296;28;20023;-71
2022/05/29 04:38:29;;;;;;;;;;;7.40;99.90;;;;;;5105109;28;20297;-72
2022/05/29 04:41:05;;;;;;;;;;;7.40;99.90;;;;;;5088718;28;19925;-71
2022/05/29 04:43:37;;;;;;;;;;;7.40;99.90;;;;;;5068996;28;19931;-72
2022/05/29 04:46:09;;;;;;;;;;;7.40;99.90;;;;;;5063315;28;19928;-72
2022/05/29 04:48:41;;;;;;;;;;;7.40;99.90;;;;;;5067640;28;19936;-71
2022/05/29 04:51:13;;;;;;;;;;;7.50;99.90;;;;;;5080503;28;20019;-72
2022/05/29 04:53:39;;;;;;;;;;;7.50;99.90;;;;;;5056169;28;19933;-72
2022/05/29 04:56:11;;;;;;;;;;;7.60;99.90;;;;;;5098016;28;19939;-71
2022/05/29 04:58:42;;;;;;;;;;;7.60;99.90;;;;;;5077430;28;19931;-71
2022/05/29 05:01:14;;;;;;;;;;;7.70;99.90;;;;;;5082148;28;19925;-72
2022/05/29 05:03:45;;;;;;;;;;;7.70;99.90;;;;;;5078886;28;19925;-72
2022/05/29 05:06:17;;;;;;;;;;;7.80;99.90;;;;;;5097957;28;19924;-72
2022/05/29 05:08:48;;;;;;;;;;;7.80;99.90;;;;;;5084625;28;19928;-73
2022/05/29 05:11:20;;;;;;;;;;;7.90;99.90;;;;;;5094095;28;19948;-72
2022/05/29 05:13:52;;;;;;;;;;;8.00;99.90;;;;;;5076655;28;19925;-72
2022/05/29 05:16:23;;;;;;;;;;;8.00;99.90;;;;;;5087578;28;20281;-72
2022/05/29 05:18:55;;;;;;;;;;;8.10;99.90;;;;;;5080128;28;20333;-72
2022/05/29 05:21:22;;;;;;;;;;;8.10;99.90;;;;;;5087831;28;20292;-72
2022/05/29 05:23:53;;;;;;;;;;;8.30;99.90;;;;;;5099883;28;20007;-72
2022/05/29 05:26:25;;;;;;;;;;;8.40;99.90;;;;;;5087157;28;20214;-72
2022/05/29 05:28:56;;;;;;;;;;;8.40;99.90;;;;;;5090275;28;20408;-72
2022/05/29 05:31:28;;;;;;;;;;;8.50;99.90;;;;;;5085653;28;19947;-72
2022/05/29 05:34:00;;;;;;;;;;;8.60;99.90;;;;;;5081116;28;20309;-73
2022/05/29 05:36:27;;;;;;;;;;;8.70;99.90;;;;;;5085921;28;19924;-72
2022/05/29 05:38:58;;;;;;;;;;;8.80;99.90;;;;;;5081804;28;19932;-72
2022/05/29 05:41:30;;;;;;;;;;;8.90;99.90;;;;;;5088029;28;19940;-72
2022/05/29 05:43:57;;;;;;;;;;;9.00;99.90;;;;;;5091242;28;19924;-73
2022/05/29 05:46:28;;;;;;;;;;;9.10;99.90;;;;;;5093055;28;20031;-72
2022/05/29 05:49:00;;;;;;;;;;;9.10;99.90;;;;;;5086230;28;19932;-72
2022/05/29 05:51:32;;;;;;;;;;;9.20;99.90;;;;;;5061328;28;19931;-72
2022/05/29 05:53:58;;;;;;;;;;;9.30;99.90;;;;;;5085952;28;19932;-73
2022/05/29 05:56:30;;;;;;;;;;;9.30;99.90;;;;;;5063234;28;19928;-72
2022/05/29 05:59:01;;;;;;;;;;;9.40;99.90;;;;;;5069760;28;20408;-71
2022/05/29 06:01:33;;;;;;;;;;;9.60;99.90;;;;;;5091223;28;19939;-72
2022/05/29 06:04:05;;;;;;;;;;;9.70;99.90;;;;;;5089584;28;19931;-72
2022/05/29 06:06:36;;;;;;;;;;;9.80;99.90;;;;;;5090065;28;20053;-72
2022/05/29 06:09:08;;;;;;;;;;;9.90;99.90;;;;;;5090818;28;19931;-71
2022/05/29 06:11:39;;;;;;;;;;;10.00;99.90;;;;;;5088169;28;19930;-72
2022/05/29 06:14:11;;;;;;;;;;;10.00;99.90;;;;;;5072567;28;20292;-72
2022/05/29 06:16:42;;;;;;;;;;;10.00;99.90;;;;;;5091275;28;19924;-72
2022/05/29 06:19:14;;;;;;;;;;;10.00;99.90;;;;;;5091301;28;19924;-72
2022/05/29 06:21:46;;;;;;;;;;;10.00;99.90;;;;;;5072368;28;20377;-72
2022/05/29 06:24:17;;;;;;;;;;;10.00;99.90;;;;;;5090300;28;19932;-73
2022/05/29 06:26:49;;;;;;;;;;;10.00;99.90;;;;;;5090983;28;19928;-73
2022/05/29 06:29:16;;;;;;;;;;;10.10;99.90;;;;;;5091588;28;19932;-72
2022/05/29 06:31:43;;;;;;;;;;;10.20;99.90;;;;;;5086054;28;19990;-71
2022/05/29 06:34:15;;;;;;;;;;;10.30;99.90;;;;;;5070977;28;19946;-72
2022/05/29 06:36:41;;;;;;;;;;;10.30;99.90;;;;;;5072578;28;19924;-72
2022/05/29 06:39:08;;;;;;;;;;;10.40;99.90;;;;;;5106238;28;19932;-73
2022/05/29 06:41:39;;;;;;;;;;;10.40;99.90;;;;;;5090808;28;19933;-72
2022/05/29 06:44:06;;;;;;;;;;;10.50;99.90;;;;;;5072148;28;19954;-72
2022/05/29 06:46:33;;;;;;;;;;;10.50;99.90;;;;;;5090813;28;19935;-72
2022/05/29 06:49:04;;;;;;;;;;;10.60;99.90;;;;;;5072727;28;19928;-73
2022/05/29 06:51:36;;;;;;;;;;;10.60;99.90;;;;;;5071832;28;19931;-71
2022/05/29 06:54:08;;;;;;;;;;;10.60;99.90;;;;;;5056135;28;19928;-72
2022/05/29 06:56:39;;;;;;;;;;;10.70;99.90;;;;;;5101684;28;20446;-73
2022/05/29 06:59:11;;;;;;;;;;;10.80;99.90;;;;;;5090285;28;20414;-71
2022/05/29 07:07:18;;;;;;;;;;;11.30;99.90;;;;;;5090044;28;19924;-72
2022/05/29 07:09:50;;;;;;;;;;;11.40;99.90;;;;;;5102765;28;19928;-73
2022/05/29 07:12:24;;;;;;;;;;;11.50;99.90;;;;;;5090050;28;19935;-72
2022/05/29 07:15:01;;;;;;;;;;;11.40;99.90;;;;;;5072832;28;19983;-72
2022/05/29 07:17:32;;;;;;;;;;;11.30;99.90;;;;;;5089850;28;19947;-72
2022/05/29 07:20:04;;;;;;;;;;;11.30;99.90;;;;;;5074544;28;19924;-72
2022/05/29 07:22:36;;;;;;;;;;;11.50;99.90;;;;;;5095346;28;19939;-72
2022/05/29 07:25:03;;;;;;;;;;;11.70;99.90;;;;;;5099319;28;20652;-71
2022/05/29 07:27:34;;;;;;;;;;;11.80;99.90;;;;;;5112183;28;19947;-72
2022/05/29 07:30:06;;;;;;;;;;;12.00;99.90;;;;;;5093559;28;19924;-71
2022/05/29 07:32:38;;;;;;;;;;;12.20;99.90;;;;;;5112192;28;19924;-72
2022/05/29 07:35:09;;;;;;;;;;;12.30;99.90;;;;;;5078327;28;19924;-72
2022/05/29 07:37:42;;;;;;;;;;;12.50;99.90;;;;;;5076752;28;19924;-71
2022/05/29 07:40:13;;;;;;;;;;;12.70;99.90;;;;;;5077151;28;19928;-72
2022/05/29 07:45:35;;;;;;;;;;;12.70;99.90;;;;;;5076151;28;19928;-72
2022/05/29 07:48:08;;;;;;;;;;;12.70;99.90;;;;;;5110385;28;19924;-72
2022/05/29 07:50:40;;;;;;;;;;;12.70;99.90;;;;;;5077560;28;20014;-72
2022/05/29 07:53:12;;;;;;;;;;;12.70;99.90;;;;;;5096297;28;20019;-72
2022/05/29 07:55:44;;;;;;;;;;;12.70;99.90;;;;;;5095949;28;19924;-72
2022/05/29 07:58:16;;;;;;;;;;;12.80;99.90;;;;;;5096525;28;19999;-72
2022/05/29 08:00:49;;;;;;;;;;;12.90;99.90;;;;;;5111437;28;19931;-72
2022/05/29 08:03:22;;;;;;;;;;;13.00;99.90;;;;;;5094350;28;19935;-72
2022/05/29 08:05:54;;;;;;;;;;;13.10;99.90;;;;;;5096812;28;19924;-71
2022/05/29 08:08:29;;;;;;;;;;;13.20;99.90;;;;;;5077409;28;21339;-73
2022/05/29 08:11:01;;;;;;;;;;;13.40;99.90;;;;;;5096156;28;19931;-73
2022/05/29 08:13:35;;;;;;;;;;;13.50;99.90;;;;;;5077572;28;19924;-75
2022/05/29 08:16:07;;;;;;;;;;;13.60;99.90;;;;;;5109967;28;19932;-72
2022/05/29 08:18:38;;;;;;;;;;;13.60;99.90;;;;;;5095976;28;19924;-72
2022/05/29 08:21:10;;;;;;;;;;;13.60;99.90;;;;;;5096234;28;19924;-72
2022/05/29 08:30:37;;;;;;;;;;;13.70;99.90;;;;;;5078719;28;20320;-71
2022/05/29 08:32:08;;;;;;;;;;;13.90;99.90;;;;;;5093115;28;20316;-72
2022/05/29 08:34:42;;;;;;;;;;;13.80;99.90;;;;;;5107704;27;19962;-72
2022/05/29 08:37:13;;;;;;;;;;;13.70;99.90;;;;;;5074557;28;19935;-72
2022/05/29 08:39:40;;;;;;;;;;;13.60;99.90;;;;;;5089224;28;19931;-72
2022/05/29 08:42:16;;;;;;;;;;;13.50;99.90;;;;;;5058838;28;20404;-72
2022/05/29 08:44:49;;;;;;;;;;;13.40;99.90;;;;;;5090802;28;20019;-71
2022/05/29 08:47:24;;;;;;;;;;;13.40;99.90;;;;;;5072870;28;19924;-73
2022/05/29 08:49:56;;;;;;;;;;;13.30;99.90;;;;;;5091347;28;19963;-72
2022/05/29 08:52:34;;;;;;;;;;;13.20;99.90;;;;;;5072807;28;19932;-72
2022/05/29 08:55:05;;;;;;;;;;;13.20;99.90;;;;;;5089269;28;19931;-73
2022/05/29 08:57:54;;;;;;;;;;;13.10;99.90;;;;;;5073095;28;19928;-72
2022/05/29 09:00:46;;;;;;;;;;;13.10;99.90;;;;;;5090089;28;19931;-73
2022/05/29 09:03:37;;;;;;;;;;;12.90;99.90;;;;;;5074822;28;19931;-73
2022/05/29 09:06:06;;;;;;;;;;;12.90;99.90;;;;;;5073640;28;19991;-73
2022/05/29 09:08:45;;;;;;;;;;;12.80;99.90;;;;;;5108494;28;19938;-72
2022/05/29 09:11:27;;;;;;;;;;;12.90;99.90;;;;;;5058118;28;19932;-71
2022/05/29 09:14:05;;;;;;;;;;;13.10;99.90;;;;;;5107041;28;20376;-72
2022/05/29 09:16:41;;;;;;;;;;;13.30;99.90;;;;;;5107506;28;19924;-72
2022/05/29 09:19:31;;;;;;;;;;;13.60;99.90;;;;;;5092217;28;20312;-73
2022/05/29 09:22:10;;;;;;;;;;;13.80;99.90;;;;;;5071346;28;19928;-73
2022/05/29 09:25:00;;;;;;;;;;;14.10;99.90;;;;;;5088663;28;19935;-72
2022/05/29 09:27:33;;;;;;;;;;;14.30;99.90;;;;;;5090191;28;19932;-72
2022/05/29 09:29:59;;;;;;;;;;;14.50;99.90;;;;;;5105731;28;20023;-73
2022/05/29 09:32:32;;;;;;;;;;;14.70;99.90;;;;;;5074406;28;19938;-72
2022/05/29 09:35:14;;;;;;;;;;;15.00;99.90;;;;;;5074288;28;19923;-72
2022/05/29 09:37:58;;;;;;;;;;;15.20;99.90;;;;;;5073742;28;19968;-72
2022/05/29 09:40:54;;;;;;;;;;;15.20;99.90;;;;;;5103046;28;19924;-72
2022/05/29 09:43:27;;;;;;;;;;;15.20;99.90;;;;;;5070846;28;19928;-71
2022/05/29 09:46:17;;;;;;;;;;;15.20;99.90;;;;;;5072191;28;20675;-72
2022/05/29 09:51:49;;;;;;;;;;;15.10;99.90;;;;;;5068958;28;19924;-71
2022/05/29 09:54:29;;;;;;;;;;;15.00;99.90;;;;;;5090956;28;19928;-71
2022/05/29 09:57:07;;;;;;;;;;;15.00;99.90;;;;;;5091176;28;19924;-72
2022/05/29 09:59:40;;;;;;;;;;;15.00;99.90;;;;;;5072564;28;19931;-72
2022/05/29 10:02:21;;;;;;;;;;;15.20;99.90;;;;;;5102877;28;19931;-72
2022/05/29 10:04:55;;;;;;;;;;;15.10;99.90;;;;;;5087713;28;19924;-72
2022/05/29 10:07:40;;;;;;;;;;;15.20;99.90;;;;;;5069054;28;19928;-72
2022/05/29 10:10:24;;;;;;;;;;;15.20;99.90;;;;;;5088312;28;20449;-72
2022/05/29 10:12:52;;;;;;;;;;;15.40;99.90;;;;;;5070557;28;19958;-72
2022/05/29 10:15:24;;;;;;;;;;;15.50;99.90;;;;;;5054144;28;19924;-72
2022/05/29 10:17:58;;;;;;;;;;;15.60;99.90;;;;;;5066253;28;19928;-72
2022/05/29 10:20:35;;;;;;;;;;;15.50;99.90;;;;;;5081054;28;20381;-72
2022/05/29 10:23:26;;;;;;;;;;;15.40;99.90;;;;;;5079671;28;20380;-72
2022/05/29 10:25:57;;;;;;;;;;;15.40;99.90;;;;;;5057209;28;20401;-72
2022/05/29 10:28:26;;;;;;;;;;;15.30;99.90;;;;;;5081547;28;20015;-72
2022/05/29 10:31:00;;;;;;;;;;;15.40;99.90;;;;;;5071245;28;19947;-72
2022/05/29 10:33:33;;;;;;;;;;;15.40;99.90;;;;;;5066273;28;19929;-72
2022/05/29 10:36:16;;;;;;;;;;;15.40;99.90;;;;;;5083722;28;19932;-72
2022/05/29 10:39:02;;;;;;;;;;;15.50;99.90;;;;;;5086633;28;19930;-72
2022/05/29 10:41:35;;;;;;;;;;;15.50;99.90;;;;;;5085710;28;19929;-72
2022/05/29 10:44:35;;;;;;;;;;;15.50;99.90;;;;;;5088711;28;19928;-73
2022/05/29 10:47:14;;;;;;;;;;;15.60;99.90;;;;;;5066741;28;19928;-72
2022/05/29 10:49:47;;;;;;;;;;;15.80;99.90;;;;;;5067610;28;19928;-72
2022/05/29 10:52:19;;;;;;;;;;;15.80;99.90;;;;;;5085178;28;19928;-72
2022/05/29 10:55:04;;;;;;;;;;;16.00;99.90;;;;;;5061769;28;20266;-72
2022/05/29 10:57:35;;;;;;;;;;;16.10;99.90;;;;;;5082231;28;19928;-73
2022/05/29 11:00:21;;;;;;;;;;;16.30;99.90;;;;;;5063943;28;19931;-72
2022/05/29 11:05:42;;;;;;;;;;;16.70;99.90;;;;;;5087462;28;20376;-72
2022/05/29 11:08:32;;;;;;;;;;;16.90;99.70;;;;;;5087393;28;19946;-72
2022/05/29 11:11:03;;;;;;;;;;;17.00;99.90;;;;;;5088155;28;19940;-72
2022/05/29 11:13:38;;;;;;;;;;;17.20;99.80;;;;;;5076074;28;19924;-72
2022/05/29 11:16:21;;;;;;;;;;;17.20;99.90;;;;;;5085570;28;19928;-72
2022/05/29 11:19:06;;;;;;;;;;;17.50;99.70;;;;;;5069705;28;20035;-72
2022/05/29 11:21:56;;;;;;;;;;;17.40;98.10;;;;;;5084356;28;19924;-72
2022/05/29 11:24:51;;;;;;;;;;;17.40;98.90;;;;;;5082214;28;19925;-72
2022/05/29 11:27:41;;;;;;;;;;;17.30;98.70;;;;;;5084501;28;19932;-72
2022/05/29 11:30:32;;;;;;;;;;;17.10;97.30;;;;;;5084502;28;19931;-72
2022/05/29 11:33:09;;;;;;;;;;;17.10;98.00;;;;;;5101985;28;19928;-73
2022/05/29 11:36:00;;;;;;;;;;;17.00;98.40;;;;;;5080416;28;19936;-72
2022/05/29 11:38:39;;;;;;;;;;;16.80;97.80;;;;;;5069023;28;19928;-72
2022/05/29 11:41:13;;;;;;;;;;;16.60;96.90;;;;;;5087177;28;19928;-72
2022/05/29 11:43:47;;;;;;;;;;;16.30;96.70;;;;;;5083505;28;20015;-72
2022/05/29 11:52:19;;;;;;;;;;;16.20;96.60;;;;;;5092706;28;19939;-72
2022/05/29 11:55:09;;;;;;;;;;;16.20;97.90;;;;;;5086684;28;19930;-72
2022/05/29 11:57:43;;;;;;;;;;;16.20;97.60;;;;;;5085128;28;19951;-72
2022/05/29 12:00:20;;;;;;;;;;;16.10;98.00;;;;;;5077230;28;19963;-72
2022/05/29 12:03:04;;;;;;;;;;;16.10;96.50;;;;;;5066856;28;19928;-72
2022/05/29 12:05:38;;;;;;;;;;;16.10;97.20;;;;;;5051737;28;19924;-72
2022/05/29 12:08:10;;;;;;;;;;;16.10;96.50;;;;;;5070314;28;19923;-72
2022/05/29 12:11:02;;;;;;;;;;;16.10;96.40;;;;;;5093444;28;20384;-71
2022/05/29 12:13:36;;;;;;;;;;;16.10;95.40;;;;;;5056550;28;20388;-72
2022/05/29 12:16:10;;;;;;;;;;;15.90;97.00;;;;;;5093318;28;20578;-72
2022/05/29 12:18:45;;;;;;;;;;;15.80;97.00;;;;;;5072991;28;19924;-72
2022/05/29 12:21:20;;;;;;;;;;;15.70;96.70;;;;;;5067184;28;19939;-72
2022/05/29 12:23:52;;;;;;;;;;;15.60;97.20;;;;;;5086755;28;19929;-72
2022/05/29 12:26:44;;;;;;;;;;;15.50;98.20;;;;;;5082881;28;19932;-73
2022/05/29 12:29:25;;;;;;;;;;;15.40;98.00;;;;;;5071856;28;20281;-72
2022/05/29 12:32:00;;;;;;;;;;;15.30;97.70;;;;;;5081796;28;19929;-72
2022/05/29 12:34:36;;;;;;;;;;;15.10;97.70;;;;;;5058073;28;19950;-72
2022/05/29 12:37:02;;;;;;;;;;;15.00;98.60;;;;;;5086514;28;20396;-72
2022/05/29 12:39:54;;;;;;;;;;;14.90;98.40;;;;;;5074946;28;20397;-72
2022/05/29 12:42:33;;;;;;;;;;;14.80;98.00;;;;;;5055612;28;19932;-72
2022/05/29 12:45:05;;;;;;;;;;;14.70;97.80;;;;;;5076608;28;20288;-72
2022/05/29 12:47:36;;;;;;;;;;;14.60;98.00;;;;;;5088506;28;19924;-72
2022/05/29 12:50:27;;;;;;;;;;;14.60;98.10;;;;;;5092740;28;20208;-72
2022/05/29 12:53:07;;;;;;;;;;;14.50;98.60;;;;;;5059791;28;20424;-72
2022/05/29 12:55:39;;;;;;;;;;;14.40;98.40;;;;;;5065910;28;19928;-72
2022/05/29 12:58:12;;;;;;;;;;;14.30;99.30;;;;;;5060552;28;19928;-72
2022/05/29 13:01:10;;;;;;;;;;;14.10;98.50;;;;;;5083166;28;20315;-72
2022/05/29 13:03:55;;;;;;;;;;;14.00;98.90;;;;;;5066279;28;20636;-72
2022/05/29 13:06:45;;;;;;;;;;;13.90;99.70;;;;;;5085243;28;19925;-72
2022/05/29 13:09:28;;;;;;;;;;;13.90;99.90;;;;;;5074480;28;19935;-72
2022/05/29 13:12:02;;;;;;;;;;;13.90;99.90;;;;;;5084972;28;19928;-72
2022/05/29 13:14:35;;;;;;;;;;;13.90;99.90;;;;;;5086728;28;20479;-71
2022/05/29 13:17:09;;;;;;;;;;;13.80;99.70;;;;;;5086834;28;20396;-71
2022/05/29 13:19:53;;;;;;;;;;;13.60;99.30;;;;;;5089669;28;19924;-72
2022/05/29 13:22:43;;;;;;;;;;;13.60;99.90;;;;;;5074003;28;19928;-76
2022/05/29 13:25:10;;;;;;;;;;;13.30;99.90;;;;;;5086308;28;20482;-71
2022/05/29 13:27:36;;;;;;;;;;;12.70;99.90;;;;;;5069022;28;20423;-71
2022/05/29 13:30:28;;;;;;;;;;;12.30;99.90;;;;;;5096873;27;19928;-72
2022/05/29 13:33:18;;;;;;;;;;;11.90;99.90;;;;;;5081192;28;19928;-72
2022/05/29 13:35:50;;;;;;;;;;;11.60;99.90;;;;;;5071226;28;20411;-72
2022/05/29 13:38:36;;;;;;;;;;;11.30;99.90;;;;;;5065237;28;19924;-72
2022/05/29 13:41:03;;;;;;;;;;;11.00;99.90;;;;;;5070791;28;19928;-72
2022/05/29 13:43:36;;;;;;;;;;;10.40;99.90;;;;;;5066829;28;19947;-72
2022/05/29 13:46:17;;;;;;;;;;;10.10;99.90;;;;;;5071431;28;19924;-72
2022/05/29 13:49:15;;;;;;;;;;;9.90;99.90;;;;;;5052664;28;19947;-72
2022/05/29 13:51:47;;;;;;;;;;;9.60;99.90;;;;;;5084943;28;19951;-72
2022/05/29 13:54:21;;;;;;;;;;;9.50;99.90;;;;;;5087054;28;19928;-72
2022/05/29 13:57:05;;;;;;;;;;;9.30;99.90;;;;;;5044690;28;19932;-72
2022/05/29 14:05:36;;;;;;;;;;;9.20;99.90;;;;;;5085684;28;19924;-72
2022/05/29 14:08:17;;;;;;;;;;;9.20;99.90;;;;;;5071853;28;19928;-72
2022/05/29 14:10:50;;;;;;;;;;;9.40;99.90;;;;;;5074963;28;19928;-72
2022/05/29 14:13:25;;;;;;;;;;;9.60;99.90;;;;;;5083130;28;19924;-72
2022/05/29 14:16:03;;;;;;;;;;;9.70;99.90;;;;;;5089869;28;19924;-72
2022/05/29 14:18:32;;;;;;;;;;;9.90;99.90;;;;;;5079323;28;20431;-72
2022/05/29 14:21:08;;;;;;;;;;;10.00;99.90;;;;;;5090026;28;20027;-72
2022/05/29 14:23:46;;;;;;;;;;;10.00;99.90;;;;;;5094096;28;19924;-72
2022/05/29 14:26:57;;;;;;;;;;;10.00;99.90;;;;;;5074425;28;19928;-73
2022/05/29 14:29:47;;;;;;;;;;;9.90;99.90;;;;;;5069826;28;19924;-72
2022/05/29 14:32:22;;;;;;;;;;;9.70;99.90;;;;;;5088339;28;19924;-73
2022/05/29 14:34:54;;;;;;;;;;;9.70;99.90;;;;;;5067411;28;19931;-73
2022/05/29 14:37:31;;;;;;;;;;;9.60;99.90;;;;;;5091306;28;19924;-73
2022/05/29 14:40:06;;;;;;;;;;;9.60;99.90;;;;;;5091837;28;20408;-73
2022/05/29 14:42:38;;;;;;;;;;;9.70;99.90;;;;;;5084003;28;20308;-73
2022/05/29 14:45:13;;;;;;;;;;;9.80;99.90;;;;;;5088351;28;19925;-72
2022/05/29 14:47:55;;;;;;;;;;;9.90;99.90;;;;;;5094175;28;19936;-72
2022/05/29 14:50:30;;;;;;;;;;;10.10;99.90;;;;;;5088956;28;19939;-72
2022/05/29 14:53:17;;;;;;;;;;;10.10;99.90;;;;;;5081087;28;20435;-72
2022/05/29 14:55:52;;;;;;;;;;;10.20;99.90;;;;;;5082649;28;19925;-73
2022/05/29 14:58:27;;;;;;;;;;;10.20;99.90;;;;;;5079633;28;19935;-72
2022/05/29 15:01:05;;;;;;;;;;;10.30;99.90;;;;;;5068365;28;19925;-73
2022/05/29 15:03:36;;;;;;;;;;;10.40;99.90;;;;;;5060276;28;19932;-72
2022/05/29 15:06:11;;;;;;;;;;;10.60;99.90;;;;;;5078513;28;19924;-72
2022/05/29 15:11:39;;;;;;;;;;;11.20;99.90;;;;;;5077599;28;19935;-72
2022/05/29 15:14:19;;;;;;;;;;;11.90;99.90;;;;;;5073825;28;19935;-72
2022/05/29 15:16:55;;;;;;;;;;;12.20;99.90;;;;;;5083883;28;20397;-72
2022/05/29 15:25:18;;;;;;;;;;;13.00;99.90;;;;;;5070412;28;19951;-72
2022/05/29 15:27:46;;;;;;;;;;;13.00;99.90;;;;;;5072815;28;19924;-72
2022/05/29 15:30:22;;;;;;;;;;;13.00;99.90;;;;;;5067839;28;19971;-72
2022/05/29 15:33:01;;;;;;;;;;;13.20;99.90;;;;;;5052769;28;19928;-72
2022/05/29 15:35:32;;;;;;;;;;;13.30;99.90;;;;;;5071385;28;19939;-72
2022/05/29 15:38:04;;;;;;;;;;;13.80;99.90;;;;;;5065180;28;19935;-72
2022/05/29 15:40:44;;;;;;;;;;;14.10;99.90;;;;;;5056279;28;19935;-72
2022/05/29 15:43:22;;;;;;;;;;;14.60;99.90;;;;;;5070909;28;20023;-72
2022/05/29 15:46:23;;;;;;;;;;;14.80;99.90;;;;;;5075614;28;19947;-72
2022/05/29 15:49:07;;;;;;;;;;;14.80;99.90;;;;;;5071697;28;19935;-72
2022/05/29 15:51:48;;;;;;;;;;;14.50;99.90;;;;;;5104713;28;19928;-73
2022/05/29 15:54:35;;;;;;;;;;;14.40;99.90;;;;;;5060778;28;19947;-72
2022/05/29 15:57:09;;;;;;;;;;;14.20;99.90;;;;;;5083400;28;19938;-72
2022/05/29 16:00:00;;;;;;;;;;;13.80;99.90;;;;;;5076459;28;20277;-72